sensor_id;sensor_type;location;lat;lon;timestamp;P1;durP1;ratioP1;P2;durP2;ratioP2
26191;SDS011;13935;55.672;37.764;2023-04-09T05:09:19;33.50;;;22.55;;
26191;SDS011;13935;55.672;37.764;2023-04-09T05:11:34;33.30;;;24.05;;
26191;SDS011;13935;55.672;37.764;2023-04-09T05:51:11;35.60;;;25.65;;
26191;SDS011;13935;55.672;37.764;2023-04-09T05:59:53;37.00;;;24.95;;
26191;SDS011;13935;55.672;37.764;2023-04-09T06:00:55;36.83;;;25.38;;
26191;SDS011;13935;55.672;37.764;2023-04-09T06:01:57;32.65;;;26.20;;
26191;SDS011;13935;55.672;37.764;2023-04-09T06:03:00;38.45;;;25.35;;
26191;SDS011;13935;55.672;37.764;2023-04-09T06:04:03;34.58;;;24.25;;
26191;SDS011;13935;55.672;37.764;2023-04-09T06:05:05;35.88;;;24.60;;
26191;SDS011;13935;55.672;37.764;2023-04-09T06:06:07;33.80;;;24.75;;
26191;SDS011;13935;55.672;37.764;2023-04-09T06:07:09;32.30;;;24.60;;
26191;SDS011;13935;55.672;37.764;2023-04-09T06:08:12;34.85;;;23.88;;
26191;SDS011;13935;55.672;37.764;2023-04-09T06:09:14;34.05;;;25.27;;
26191;SDS011;13935;55.672;37.764;2023-04-09T06:10:17;34.85;;;24.75;;
26191;SDS011;13935;55.672;37.764;2023-04-09T06:11:23;33.67;;;24.52;;
26191;SDS011;13935;55.672;37.764;2023-04-09T06:12:25;32.50;;;24.08;;
26191;SDS011;13935;55.672;37.764;2023-04-09T06:15:08;36.10;;;24.65;;
26191;SDS011;13935;55.672;37.764;2023-04-09T06:16:11;37.38;;;24.60;;
26191;SDS011;13935;55.672;37.764;2023-04-09T06:17:14;32.85;;;24.08;;
26191;SDS011;13935;55.672;37.764;2023-04-09T06:18:22;31.42;;;23.67;;
26191;SDS011;13935;55.672;37.764;2023-04-09T06:19:25;39.63;;;26.75;;
26191;SDS011;13935;55.672;37.764;2023-04-09T06:20:27;39.97;;;28.30;;
26191;SDS011;13935;55.672;37.764;2023-04-09T06:21:29;37.78;;;26.05;;
26191;SDS011;13935;55.672;37.764;2023-04-09T06:22:32;32.97;;;24.42;;
26191;SDS011;13935;55.672;37.764;2023-04-09T06:23:35;33.95;;;23.85;;
26191;SDS011;13935;55.672;37.764;2023-04-09T06:24:37;31.25;;;24.08;;
26191;SDS011;13935;55.672;37.764;2023-04-09T06:25:39;32.20;;;24.35;;
26191;SDS011;13935;55.672;37.764;2023-04-09T06:26:41;31.90;;;24.27;;
26191;SDS011;13935;55.672;37.764;2023-04-09T06:27:44;35.03;;;24.75;;
26191;SDS011;13935;55.672;37.764;2023-04-09T06:28:46;30.80;;;24.52;;
26191;SDS011;13935;55.672;37.764;2023-04-09T06:29:48;29.00;;;23.48;;
26191;SDS011;13935;55.672;37.764;2023-04-09T06:30:50;36.97;;;25.27;;
26191;SDS011;13935;55.672;37.764;2023-04-09T06:34:02;31.23;;;23.55;;
26191;SDS011;13935;55.672;37.764;2023-04-09T06:35:05;34.22;;;24.77;;
26191;SDS011;13935;55.672;37.764;2023-04-09T06:36:22;34.80;;;23.88;;
26191;SDS011;13935;55.672;37.764;2023-04-09T06:37:25;30.48;;;23.88;;
26191;SDS011;13935;55.672;37.764;2023-04-09T06:38:27;32.90;;;24.15;;
26191;SDS011;13935;55.672;37.764;2023-04-09T06:39:29;31.75;;;24.83;;
26191;SDS011;13935;55.672;37.764;2023-04-09T06:40:31;32.67;;;24.02;;
26191;SDS011;13935;55.672;37.764;2023-04-09T06:41:36;34.47;;;25.20;;
26191;SDS011;13935;55.672;37.764;2023-04-09T06:42:50;34.90;;;24.08;;
26191;SDS011;13935;55.672;37.764;2023-04-09T06:44:02;29.55;;;24.92;;
26191;SDS011;13935;55.672;37.764;2023-04-09T06:45:04;32.00;;;24.10;;
26191;SDS011;13935;55.672;37.764;2023-04-09T06:46:09;34.33;;;25.30;;
26191;SDS011;13935;55.672;37.764;2023-04-09T06:47:11;31.35;;;24.58;;
26191;SDS011;13935;55.672;37.764;2023-04-09T06:48:15;34.95;;;24.40;;
26191;SDS011;13935;55.672;37.764;2023-04-09T06:49:17;29.73;;;24.48;;
26191;SDS011;13935;55.672;37.764;2023-04-09T06:50:19;36.35;;;25.25;;
26191;SDS011;13935;55.672;37.764;2023-04-09T06:51:21;32.65;;;23.65;;
26191;SDS011;13935;55.672;37.764;2023-04-09T06:52:23;29.23;;;23.65;;
26191;SDS011;13935;55.672;37.764;2023-04-09T06:53:25;32.80;;;24.15;;
26191;SDS011;13935;55.672;37.764;2023-04-09T06:54:27;29.80;;;24.10;;
26191;SDS011;13935;55.672;37.764;2023-04-09T06:55:30;31.63;;;24.08;;
26191;SDS011;13935;55.672;37.764;2023-04-09T06:56:36;27.30;;;22.60;;
26191;SDS011;13935;55.672;37.764;2023-04-09T06:57:38;31.05;;;23.33;;
26191;SDS011;13935;55.672;37.764;2023-04-09T06:58:41;35.65;;;21.92;;
26191;SDS011;13935;55.672;37.764;2023-04-09T06:59:47;28.10;;;21.63;;
26191;SDS011;13935;55.672;37.764;2023-04-09T07:00:50;27.48;;;22.40;;
26191;SDS011;13935;55.672;37.764;2023-04-09T07:01:52;36.00;;;23.35;;
26191;SDS011;13935;55.672;37.764;2023-04-09T07:02:56;27.80;;;21.75;;
26191;SDS011;13935;55.672;37.764;2023-04-09T07:03:59;29.70;;;22.00;;
26191;SDS011;13935;55.672;37.764;2023-04-09T07:05:04;32.15;;;21.98;;
26191;SDS011;13935;55.672;37.764;2023-04-09T07:06:06;29.48;;;22.38;;
26191;SDS011;13935;55.672;37.764;2023-04-09T07:07:08;28.23;;;21.85;;
26191;SDS011;13935;55.672;37.764;2023-04-09T07:08:10;34.15;;;23.00;;
26191;SDS011;13935;55.672;37.764;2023-04-09T07:09:13;29.65;;;22.73;;
26191;SDS011;13935;55.672;37.764;2023-04-09T07:10:16;33.35;;;24.55;;
26191;SDS011;13935;55.672;37.764;2023-04-09T07:11:20;32.55;;;23.38;;
26191;SDS011;13935;55.672;37.764;2023-04-09T07:12:25;32.42;;;22.38;;
26191;SDS011;13935;55.672;37.764;2023-04-09T07:13:31;32.03;;;22.70;;
26191;SDS011;13935;55.672;37.764;2023-04-09T07:14:35;35.78;;;22.92;;
26191;SDS011;13935;55.672;37.764;2023-04-09T07:15:38;28.92;;;22.23;;
26191;SDS011;13935;55.672;37.764;2023-04-09T07:16:43;30.35;;;22.70;;
26191;SDS011;13935;55.672;37.764;2023-04-09T07:17:46;31.17;;;22.95;;
26191;SDS011;13935;55.672;37.764;2023-04-09T07:18:51;34.42;;;22.25;;
26191;SDS011;13935;55.672;37.764;2023-04-09T07:19:53;27.77;;;21.77;;
26191;SDS011;13935;55.672;37.764;2023-04-09T07:20:55;34.90;;;23.00;;
26191;SDS011;13935;55.672;37.764;2023-04-09T07:21:57;28.55;;;22.27;;
26191;SDS011;13935;55.672;37.764;2023-04-09T07:22:59;26.83;;;22.85;;
26191;SDS011;13935;55.672;37.764;2023-04-09T07:24:01;28.00;;;21.48;;
26191;SDS011;13935;55.672;37.764;2023-04-09T07:25:03;30.92;;;22.00;;
26191;SDS011;13935;55.672;37.764;2023-04-09T07:26:19;30.35;;;21.95;;
26191;SDS011;13935;55.672;37.764;2023-04-09T07:27:22;29.85;;;22.15;;
26191;SDS011;13935;55.672;37.764;2023-04-09T07:29:32;33.00;;;22.90;;
26191;SDS011;13935;55.672;37.764;2023-04-09T07:30:34;27.20;;;22.38;;
26191;SDS011;13935;55.672;37.764;2023-04-09T07:31:37;31.75;;;23.45;;
26191;SDS011;13935;55.672;37.764;2023-04-09T07:32:42;30.75;;;22.75;;
26191;SDS011;13935;55.672;37.764;2023-04-09T07:33:46;30.27;;;23.30;;
26191;SDS011;13935;55.672;37.764;2023-04-09T07:34:52;26.08;;;22.45;;
26191;SDS011;13935;55.672;37.764;2023-04-09T07:35:55;31.63;;;23.48;;
26191;SDS011;13935;55.672;37.764;2023-04-09T07:36:57;33.47;;;23.67;;
26191;SDS011;13935;55.672;37.764;2023-04-09T07:37:59;33.85;;;22.80;;
26191;SDS011;13935;55.672;37.764;2023-04-09T07:39:01;34.83;;;23.60;;
26191;SDS011;13935;55.672;37.764;2023-04-09T07:40:03;31.90;;;22.08;;
26191;SDS011;13935;55.672;37.764;2023-04-09T07:41:06;31.73;;;23.25;;
26191;SDS011;13935;55.672;37.764;2023-04-09T07:42:43;32.35;;;20.95;;
26191;SDS011;13935;55.672;37.764;2023-04-09T07:43:45;34.95;;;21.48;;
26191;SDS011;13935;55.672;37.764;2023-04-09T07:44:48;26.63;;;20.83;;
26191;SDS011;13935;55.672;37.764;2023-04-09T07:45:50;33.15;;;21.23;;
26191;SDS011;13935;55.672;37.764;2023-04-09T07:50:26;30.80;;;21.88;;
26191;SDS011;13935;55.672;37.764;2023-04-09T07:51:30;32.60;;;20.70;;
26191;SDS011;13935;55.672;37.764;2023-04-09T07:52:36;26.77;;;20.80;;
26191;SDS011;13935;55.672;37.764;2023-04-09T07:53:40;35.95;;;20.40;;
26191;SDS011;13935;55.672;37.764;2023-04-09T07:56:38;29.77;;;20.65;;
26191;SDS011;13935;55.672;37.764;2023-04-09T08:03:26;24.83;;;18.58;;
26191;SDS011;13935;55.672;37.764;2023-04-09T08:04:48;26.45;;;18.80;;
26191;SDS011;13935;55.672;37.764;2023-04-09T08:05:55;27.33;;;18.30;;
26191;SDS011;13935;55.672;37.764;2023-04-09T08:06:58;20.83;;;17.33;;
26191;SDS011;13935;55.672;37.764;2023-04-09T08:08:00;29.83;;;18.55;;
26191;SDS011;13935;55.672;37.764;2023-04-09T08:10:33;24.10;;;17.35;;
26191;SDS011;13935;55.672;37.764;2023-04-09T08:11:35;26.08;;;17.67;;
26191;SDS011;13935;55.672;37.764;2023-04-09T08:12:42;25.35;;;17.58;;
26191;SDS011;13935;55.672;37.764;2023-04-09T08:14:28;26.33;;;16.85;;
26191;SDS011;13935;55.672;37.764;2023-04-09T08:15:31;27.90;;;18.35;;
26191;SDS011;13935;55.672;37.764;2023-04-09T08:16:34;26.25;;;18.38;;
26191;SDS011;13935;55.672;37.764;2023-04-09T08:17:47;21.52;;;17.38;;
26191;SDS011;13935;55.672;37.764;2023-04-09T08:18:51;23.08;;;17.05;;
26191;SDS011;13935;55.672;37.764;2023-04-09T08:20:03;24.63;;;17.55;;
26191;SDS011;13935;55.672;37.764;2023-04-09T08:21:07;24.15;;;17.10;;
26191;SDS011;13935;55.672;37.764;2023-04-09T08:22:12;23.08;;;17.98;;
26191;SDS011;13935;55.672;37.764;2023-04-09T08:23:14;22.40;;;17.08;;
26191;SDS011;13935;55.672;37.764;2023-04-09T08:24:17;28.45;;;16.92;;
26191;SDS011;13935;55.672;37.764;2023-04-09T08:25:21;22.25;;;17.10;;
26191;SDS011;13935;55.672;37.764;2023-04-09T08:26:25;29.25;;;17.10;;
26191;SDS011;13935;55.672;37.764;2023-04-09T08:27:28;23.17;;;16.88;;
26191;SDS011;13935;55.672;37.764;2023-04-09T08:28:34;22.98;;;16.98;;
26191;SDS011;13935;55.672;37.764;2023-04-09T08:29:37;22.20;;;17.05;;
26191;SDS011;13935;55.672;37.764;2023-04-09T08:30:41;21.33;;;16.95;;
26191;SDS011;13935;55.672;37.764;2023-04-09T08:31:44;25.58;;;17.13;;
26191;SDS011;13935;55.672;37.764;2023-04-09T08:32:47;19.70;;;15.95;;
26191;SDS011;13935;55.672;37.764;2023-04-09T08:33:49;24.30;;;16.05;;
26191;SDS011;13935;55.672;37.764;2023-04-09T08:34:54;21.20;;;16.50;;
26191;SDS011;13935;55.672;37.764;2023-04-09T08:35:56;23.33;;;17.27;;
26191;SDS011;13935;55.672;37.764;2023-04-09T08:36:58;24.05;;;17.50;;
26191;SDS011;13935;55.672;37.764;2023-04-09T08:38:01;24.10;;;17.58;;
26191;SDS011;13935;55.672;37.764;2023-04-09T08:40:37;20.25;;;15.73;;
26191;SDS011;13935;55.672;37.764;2023-04-09T08:41:41;19.98;;;16.38;;
26191;SDS011;13935;55.672;37.764;2023-04-09T08:42:54;21.35;;;16.02;;
26191;SDS011;13935;55.672;37.764;2023-04-09T08:45:31;24.15;;;16.73;;
26191;SDS011;13935;55.672;37.764;2023-04-09T08:46:36;21.10;;;17.42;;
26191;SDS011;13935;55.672;37.764;2023-04-09T08:47:42;22.10;;;17.15;;
26191;SDS011;13935;55.672;37.764;2023-04-09T08:48:59;22.92;;;17.30;;
26191;SDS011;13935;55.672;37.764;2023-04-09T08:50:04;22.02;;;16.52;;
26191;SDS011;13935;55.672;37.764;2023-04-09T08:55:31;21.15;;;16.02;;
26191;SDS011;13935;55.672;37.764;2023-04-09T08:56:38;28.25;;;16.67;;
26191;SDS011;13935;55.672;37.764;2023-04-09T08:57:40;21.15;;;16.48;;
26191;SDS011;13935;55.672;37.764;2023-04-09T08:58:45;23.70;;;15.63;;
26191;SDS011;13935;55.672;37.764;2023-04-09T08:59:47;19.90;;;16.00;;
26191;SDS011;13935;55.672;37.764;2023-04-09T09:00:54;22.55;;;15.63;;
26191;SDS011;13935;55.672;37.764;2023-04-09T09:02:06;21.25;;;16.08;;
26191;SDS011;13935;55.672;37.764;2023-04-09T09:03:17;20.65;;;15.20;;
26191;SDS011;13935;55.672;37.764;2023-04-09T09:04:20;23.67;;;15.45;;
26191;SDS011;13935;55.672;37.764;2023-04-09T09:06:41;22.63;;;16.63;;
26191;SDS011;13935;55.672;37.764;2023-04-09T09:07:51;19.77;;;15.38;;
26191;SDS011;13935;55.672;37.764;2023-04-09T09:08:59;21.52;;;15.15;;
26191;SDS011;13935;55.672;37.764;2023-04-09T09:10:30;21.38;;;15.70;;
26191;SDS011;13935;55.672;37.764;2023-04-09T09:11:45;22.40;;;16.10;;
26191;SDS011;13935;55.672;37.764;2023-04-09T09:12:50;22.58;;;15.82;;
26191;SDS011;13935;55.672;37.764;2023-04-09T09:13:56;17.67;;;14.98;;
26191;SDS011;13935;55.672;37.764;2023-04-09T09:15:02;19.88;;;14.70;;
26191;SDS011;13935;55.672;37.764;2023-04-09T09:16:12;20.40;;;15.18;;
26191;SDS011;13935;55.672;37.764;2023-04-09T09:17:17;22.33;;;16.17;;
26191;SDS011;13935;55.672;37.764;2023-04-09T09:18:39;24.05;;;15.57;;
26191;SDS011;13935;55.672;37.764;2023-04-09T09:19:45;20.55;;;16.35;;
26191;SDS011;13935;55.672;37.764;2023-04-09T09:20:47;25.92;;;16.50;;
26191;SDS011;13935;55.672;37.764;2023-04-09T09:22:00;22.23;;;16.98;;
26191;SDS011;13935;55.672;37.764;2023-04-09T09:23:07;21.55;;;15.75;;
26191;SDS011;13935;55.672;37.764;2023-04-09T09:24:16;25.83;;;16.95;;
26191;SDS011;13935;55.672;37.764;2023-04-09T09:25:18;27.55;;;18.17;;
26191;SDS011;13935;55.672;37.764;2023-04-09T09:26:26;20.08;;;15.23;;
26191;SDS011;13935;55.672;37.764;2023-04-09T09:27:34;23.55;;;16.17;;
26191;SDS011;13935;55.672;37.764;2023-04-09T09:28:46;21.30;;;15.57;;
26191;SDS011;13935;55.672;37.764;2023-04-09T09:29:49;21.85;;;15.90;;
26191;SDS011;13935;55.672;37.764;2023-04-09T09:30:54;24.20;;;14.80;;
26191;SDS011;13935;55.672;37.764;2023-04-09T09:32:12;23.17;;;15.07;;
26191;SDS011;13935;55.672;37.764;2023-04-09T09:33:14;19.58;;;14.98;;
26191;SDS011;13935;55.672;37.764;2023-04-09T09:34:24;21.33;;;15.75;;
26191;SDS011;13935;55.672;37.764;2023-04-09T09:35:28;19.63;;;14.57;;
26191;SDS011;13935;55.672;37.764;2023-04-09T09:36:32;22.80;;;14.30;;
26191;SDS011;13935;55.672;37.764;2023-04-09T09:37:36;20.77;;;15.45;;
26191;SDS011;13935;55.672;37.764;2023-04-09T09:38:51;20.95;;;15.32;;
26191;SDS011;13935;55.672;37.764;2023-04-09T09:39:59;19.02;;;13.85;;
26191;SDS011;13935;55.672;37.764;2023-04-09T09:41:15;22.33;;;15.63;;
26191;SDS011;13935;55.672;37.764;2023-04-09T09:42:25;20.30;;;14.60;;
26191;SDS011;13935;55.672;37.764;2023-04-09T09:43:41;21.30;;;14.93;;
26191;SDS011;13935;55.672;37.764;2023-04-09T09:44:45;19.75;;;15.05;;
26191;SDS011;13935;55.672;37.764;2023-04-09T09:45:58;17.95;;;14.27;;
26191;SDS011;13935;55.672;37.764;2023-04-09T09:47:02;20.42;;;14.15;;
26191;SDS011;13935;55.672;37.764;2023-04-09T09:48:05;20.23;;;14.85;;
26191;SDS011;13935;55.672;37.764;2023-04-09T09:49:10;17.02;;;14.30;;
26191;SDS011;13935;55.672;37.764;2023-04-09T09:50:23;20.75;;;14.88;;
26191;SDS011;13935;55.672;37.764;2023-04-09T09:51:26;20.50;;;14.98;;
26191;SDS011;13935;55.672;37.764;2023-04-09T09:52:30;22.17;;;14.55;;
26191;SDS011;13935;55.672;37.764;2023-04-09T09:53:33;20.23;;;14.55;;
26191;SDS011;13935;55.672;37.764;2023-04-09T09:54:40;23.00;;;14.68;;
26191;SDS011;13935;55.672;37.764;2023-04-09T09:55:51;21.48;;;14.82;;
26191;SDS011;13935;55.672;37.764;2023-04-09T09:56:58;22.75;;;15.35;;
26191;SDS011;13935;55.672;37.764;2023-04-09T09:58:16;18.95;;;14.57;;
26191;SDS011;13935;55.672;37.764;2023-04-09T09:59:25;19.00;;;14.48;;
26191;SDS011;13935;55.672;37.764;2023-04-09T10:00:32;18.52;;;15.30;;
26191;SDS011;13935;55.672;37.764;2023-04-09T10:01:38;21.42;;;14.88;;
26191;SDS011;13935;55.672;37.764;2023-04-09T10:02:51;16.77;;;14.13;;
26191;SDS011;13935;55.672;37.764;2023-04-09T10:03:59;18.40;;;14.93;;
26191;SDS011;13935;55.672;37.764;2023-04-09T10:05:03;18.88;;;15.18;;
26191;SDS011;13935;55.672;37.764;2023-04-09T10:06:11;19.17;;;15.65;;
26191;SDS011;13935;55.672;37.764;2023-04-09T10:07:15;21.23;;;14.93;;
26191;SDS011;13935;55.672;37.764;2023-04-09T10:08:20;22.80;;;16.25;;
26191;SDS011;13935;55.672;37.764;2023-04-09T10:09:30;22.83;;;16.95;;
26191;SDS011;13935;55.672;37.764;2023-04-09T10:10:33;22.45;;;16.00;;
26191;SDS011;13935;55.672;37.764;2023-04-09T10:11:37;22.33;;;16.20;;
26191;SDS011;13935;55.672;37.764;2023-04-09T10:12:43;24.08;;;16.05;;
26191;SDS011;13935;55.672;37.764;2023-04-09T10:13:49;20.42;;;15.90;;
26191;SDS011;13935;55.672;37.764;2023-04-09T10:14:55;23.83;;;15.73;;
26191;SDS011;13935;55.672;37.764;2023-04-09T10:16:05;22.92;;;16.45;;
26191;SDS011;13935;55.672;37.764;2023-04-09T10:17:10;20.42;;;16.80;;
26191;SDS011;13935;55.672;37.764;2023-04-09T10:18:13;22.75;;;16.90;;
26191;SDS011;13935;55.672;37.764;2023-04-09T10:19:18;23.25;;;16.63;;
26191;SDS011;13935;55.672;37.764;2023-04-09T10:20:33;25.70;;;17.10;;
26191;SDS011;13935;55.672;37.764;2023-04-09T10:23:30;23.30;;;15.07;;
26191;SDS011;13935;55.672;37.764;2023-04-09T10:24:40;20.73;;;15.65;;
26191;SDS011;13935;55.672;37.764;2023-04-09T10:25:43;21.58;;;15.00;;
26191;SDS011;13935;55.672;37.764;2023-04-09T10:26:45;21.42;;;16.35;;
26191;SDS011;13935;55.672;37.764;2023-04-09T10:27:58;22.95;;;16.70;;
26191;SDS011;13935;55.672;37.764;2023-04-09T10:29:07;20.35;;;16.05;;
26191;SDS011;13935;55.672;37.764;2023-04-09T10:30:33;24.42;;;17.02;;
26191;SDS011;13935;55.672;37.764;2023-04-09T10:31:53;20.55;;;16.27;;
26191;SDS011;13935;55.672;37.764;2023-04-09T10:33:35;22.48;;;16.17;;
26191;SDS011;13935;55.672;37.764;2023-04-09T10:34:39;21.67;;;16.60;;
26191;SDS011;13935;55.672;37.764;2023-04-09T10:35:58;22.63;;;16.88;;
26191;SDS011;13935;55.672;37.764;2023-04-09T10:37:06;22.15;;;17.25;;
26191;SDS011;13935;55.672;37.764;2023-04-09T10:38:31;31.25;;;20.35;;
26191;SDS011;13935;55.672;37.764;2023-04-09T10:39:46;23.63;;;17.40;;
26191;SDS011;13935;55.672;37.764;2023-04-09T10:40:58;28.00;;;18.00;;
26191;SDS011;13935;55.672;37.764;2023-04-09T10:42:28;27.10;;;17.88;;
26191;SDS011;13935;55.672;37.764;2023-04-09T10:43:37;25.50;;;16.48;;
26191;SDS011;13935;55.672;37.764;2023-04-09T10:44:40;29.35;;;17.23;;
26191;SDS011;13935;55.672;37.764;2023-04-09T10:45:43;24.17;;;17.98;;
26191;SDS011;13935;55.672;37.764;2023-04-09T10:46:48;28.88;;;17.23;;
26191;SDS011;13935;55.672;37.764;2023-04-09T10:47:54;23.30;;;16.10;;
26191;SDS011;13935;55.672;37.764;2023-04-09T10:50:31;25.02;;;16.58;;
26191;SDS011;13935;55.672;37.764;2023-04-09T10:51:34;23.95;;;15.95;;
26191;SDS011;13935;55.672;37.764;2023-04-09T10:52:39;21.05;;;15.68;;
26191;SDS011;13935;55.672;37.764;2023-04-09T10:53:50;21.15;;;16.25;;
26191;SDS011;13935;55.672;37.764;2023-04-09T10:55:09;23.48;;;16.42;;
26191;SDS011;13935;55.672;37.764;2023-04-09T10:56:31;20.13;;;15.13;;
26191;SDS011;13935;55.672;37.764;2023-04-09T10:57:34;20.27;;;16.10;;
26191;SDS011;13935;55.672;37.764;2023-04-09T10:58:42;22.02;;;16.23;;
26191;SDS011;13935;55.672;37.764;2023-04-09T10:59:52;22.77;;;16.00;;
26191;SDS011;13935;55.672;37.764;2023-04-09T11:00:57;23.25;;;16.08;;
26191;SDS011;13935;55.672;37.764;2023-04-09T11:02:08;23.52;;;16.25;;
26191;SDS011;13935;55.672;37.764;2023-04-09T11:03:26;21.05;;;16.58;;
26191;SDS011;13935;55.672;37.764;2023-04-09T11:06:16;20.80;;;15.63;;
26191;SDS011;13935;55.672;37.764;2023-04-09T11:07:23;24.98;;;16.58;;
26191;SDS011;13935;55.672;37.764;2023-04-09T11:08:27;27.30;;;16.13;;
26191;SDS011;13935;55.672;37.764;2023-04-09T11:09:40;24.77;;;17.55;;
26191;SDS011;13935;55.672;37.764;2023-04-09T11:10:43;23.30;;;16.63;;
26191;SDS011;13935;55.672;37.764;2023-04-09T11:11:52;23.30;;;16.15;;
26191;SDS011;13935;55.672;37.764;2023-04-09T11:12:54;23.52;;;16.92;;
26191;SDS011;13935;55.672;37.764;2023-04-09T11:13:57;20.17;;;16.52;;
26191;SDS011;13935;55.672;37.764;2023-04-09T11:15:02;22.60;;;15.27;;
26191;SDS011;13935;55.672;37.764;2023-04-09T11:16:07;22.48;;;15.95;;
26191;SDS011;13935;55.672;37.764;2023-04-09T11:17:10;23.92;;;15.50;;
26191;SDS011;13935;55.672;37.764;2023-04-09T11:18:14;21.38;;;15.93;;
26191;SDS011;13935;55.672;37.764;2023-04-09T11:19:28;22.60;;;15.95;;
26191;SDS011;13935;55.672;37.764;2023-04-09T11:20:31;21.15;;;16.48;;
26191;SDS011;13935;55.672;37.764;2023-04-09T11:21:35;22.30;;;15.73;;
26191;SDS011;13935;55.672;37.764;2023-04-09T11:22:37;22.63;;;16.60;;
26191;SDS011;13935;55.672;37.764;2023-04-09T11:23:40;18.63;;;15.88;;
26191;SDS011;13935;55.672;37.764;2023-04-09T11:24:44;24.45;;;15.95;;
26191;SDS011;13935;55.672;37.764;2023-04-09T11:25:52;22.67;;;16.05;;
26191;SDS011;13935;55.672;37.764;2023-04-09T11:26:54;27.23;;;17.52;;
26191;SDS011;13935;55.672;37.764;2023-04-09T11:27:59;24.58;;;17.25;;
26191;SDS011;13935;55.672;37.764;2023-04-09T11:29:08;23.38;;;16.88;;
26191;SDS011;13935;55.672;37.764;2023-04-09T11:30:11;22.55;;;16.00;;
26191;SDS011;13935;55.672;37.764;2023-04-09T11:31:14;26.15;;;16.23;;
26191;SDS011;13935;55.672;37.764;2023-04-09T11:32:17;19.83;;;15.65;;
26191;SDS011;13935;55.672;37.764;2023-04-09T11:33:20;24.92;;;16.45;;
26191;SDS011;13935;55.672;37.764;2023-04-09T11:34:26;20.17;;;15.70;;
26191;SDS011;13935;55.672;37.764;2023-04-09T11:35:28;23.73;;;15.90;;
26191;SDS011;13935;55.672;37.764;2023-04-09T11:36:32;21.65;;;16.10;;
26191;SDS011;13935;55.672;37.764;2023-04-09T11:37:35;23.33;;;16.17;;
26191;SDS011;13935;55.672;37.764;2023-04-09T11:38:37;22.08;;;16.25;;
26191;SDS011;13935;55.672;37.764;2023-04-09T11:39:44;20.58;;;15.55;;
26191;SDS011;13935;55.672;37.764;2023-04-09T11:40:49;20.58;;;14.68;;
26191;SDS011;13935;55.672;37.764;2023-04-09T11:41:52;20.40;;;14.57;;
26191;SDS011;13935;55.672;37.764;2023-04-09T11:42:54;21.13;;;14.80;;
26191;SDS011;13935;55.672;37.764;2023-04-09T11:44:02;20.63;;;14.82;;
26191;SDS011;13935;55.672;37.764;2023-04-09T11:46:09;25.63;;;16.38;;
26191;SDS011;13935;55.672;37.764;2023-04-09T11:47:12;39.70;;;26.08;;
26191;SDS011;13935;55.672;37.764;2023-04-09T11:48:15;23.42;;;16.77;;
26191;SDS011;13935;55.672;37.764;2023-04-09T11:49:23;22.02;;;15.40;;
26191;SDS011;13935;55.672;37.764;2023-04-09T11:50:26;19.25;;;15.45;;
26191;SDS011;13935;55.672;37.764;2023-04-09T11:51:29;24.23;;;15.52;;
26191;SDS011;13935;55.672;37.764;2023-04-09T11:52:34;20.40;;;15.20;;
26191;SDS011;13935;55.672;37.764;2023-04-09T11:53:39;22.70;;;16.23;;
26191;SDS011;13935;55.672;37.764;2023-04-09T11:54:41;24.77;;;15.57;;
26191;SDS011;13935;55.672;37.764;2023-04-09T11:55:49;23.02;;;15.90;;
26191;SDS011;13935;55.672;37.764;2023-04-09T11:56:53;22.40;;;14.98;;
26191;SDS011;13935;55.672;37.764;2023-04-09T11:57:57;21.27;;;15.07;;
26191;SDS011;13935;55.672;37.764;2023-04-09T11:59:03;19.27;;;15.43;;
26191;SDS011;13935;55.672;37.764;2023-04-09T12:00:08;21.13;;;15.93;;
26191;SDS011;13935;55.672;37.764;2023-04-09T12:01:13;23.17;;;15.98;;
26191;SDS011;13935;55.672;37.764;2023-04-09T12:02:16;24.30;;;16.30;;
26191;SDS011;13935;55.672;37.764;2023-04-09T12:03:24;22.20;;;15.98;;
26191;SDS011;13935;55.672;37.764;2023-04-09T12:04:31;22.75;;;16.25;;
26191;SDS011;13935;55.672;37.764;2023-04-09T12:05:37;26.85;;;16.55;;
26191;SDS011;13935;55.672;37.764;2023-04-09T12:06:42;22.80;;;16.35;;
26191;SDS011;13935;55.672;37.764;2023-04-09T12:07:47;23.30;;;16.67;;
26191;SDS011;13935;55.672;37.764;2023-04-09T12:08:58;22.33;;;16.45;;
26191;SDS011;13935;55.672;37.764;2023-04-09T12:10:06;21.95;;;16.52;;
26191;SDS011;13935;55.672;37.764;2023-04-09T12:11:15;23.33;;;16.63;;
26191;SDS011;13935;55.672;37.764;2023-04-09T12:12:18;23.77;;;16.77;;
26191;SDS011;13935;55.672;37.764;2023-04-09T12:13:21;20.40;;;16.08;;
26191;SDS011;13935;55.672;37.764;2023-04-09T12:14:33;20.83;;;16.55;;
26191;SDS011;13935;55.672;37.764;2023-04-09T12:15:36;22.35;;;16.40;;
26191;SDS011;13935;55.672;37.764;2023-04-09T12:16:42;23.05;;;16.80;;
26191;SDS011;13935;55.672;37.764;2023-04-09T12:17:46;21.40;;;17.33;;
26191;SDS011;13935;55.672;37.764;2023-04-09T12:18:49;23.58;;;16.35;;
26191;SDS011;13935;55.672;37.764;2023-04-09T12:19:56;21.00;;;16.02;;
26191;SDS011;13935;55.672;37.764;2023-04-09T12:20:58;24.27;;;16.30;;
26191;SDS011;13935;55.672;37.764;2023-04-09T12:22:04;20.35;;;15.77;;
26191;SDS011;13935;55.672;37.764;2023-04-09T12:23:06;22.23;;;16.13;;
26191;SDS011;13935;55.672;37.764;2023-04-09T12:24:09;23.42;;;15.85;;
26191;SDS011;13935;55.672;37.764;2023-04-09T12:25:11;25.10;;;16.38;;
26191;SDS011;13935;55.672;37.764;2023-04-09T12:26:18;22.70;;;16.25;;
26191;SDS011;13935;55.672;37.764;2023-04-09T12:27:23;27.05;;;16.33;;
26191;SDS011;13935;55.672;37.764;2023-04-09T12:28:25;30.58;;;16.17;;
26191;SDS011;13935;55.672;37.764;2023-04-09T12:29:30;21.67;;;15.95;;
26191;SDS011;13935;55.672;37.764;2023-04-09T12:30:34;28.48;;;16.92;;
26191;SDS011;13935;55.672;37.764;2023-04-09T12:31:36;20.80;;;15.80;;
26191;SDS011;13935;55.672;37.764;2023-04-09T12:32:38;24.45;;;15.68;;
26191;SDS011;13935;55.672;37.764;2023-04-09T12:33:41;24.15;;;15.20;;
26191;SDS011;13935;55.672;37.764;2023-04-09T12:34:43;21.75;;;15.60;;
26191;SDS011;13935;55.672;37.764;2023-04-09T12:35:48;21.38;;;14.98;;
26191;SDS011;13935;55.672;37.764;2023-04-09T12:36:50;28.05;;;16.45;;
26191;SDS011;13935;55.672;37.764;2023-04-09T12:37:52;20.52;;;14.93;;
26191;SDS011;13935;55.672;37.764;2023-04-09T12:38:58;23.92;;;14.75;;
26191;SDS011;13935;55.672;37.764;2023-04-09T12:40:01;23.95;;;16.33;;
26191;SDS011;13935;55.672;37.764;2023-04-09T12:41:05;21.60;;;14.88;;
26191;SDS011;13935;55.672;37.764;2023-04-09T12:42:07;26.25;;;15.80;;
26191;SDS011;13935;55.672;37.764;2023-04-09T12:43:12;20.10;;;14.75;;
26191;SDS011;13935;55.672;37.764;2023-04-09T12:44:20;23.25;;;15.57;;
26191;SDS011;13935;55.672;37.764;2023-04-09T12:45:23;18.08;;;14.85;;
26191;SDS011;13935;55.672;37.764;2023-04-09T12:46:26;26.08;;;14.90;;
26191;SDS011;13935;55.672;37.764;2023-04-09T12:47:29;21.75;;;14.43;;
26191;SDS011;13935;55.672;37.764;2023-04-09T12:48:31;24.63;;;15.40;;